Time;durP1;ratioP1;P1;durP2;ratioP2;P2;SDS_P1;SDS_P2;PMS_P1;PMS_P2;Temp;Humidity;BMP_temperature;BMP_pressure;BME280_temperature;BME280_humidity;BME280_pressure;Samples;Min_cycle;Max_cycle;Signal;HPM_P1;HPM_P2
2023/03/17 00:01:20;;;;;;;12.80;5.70;;;;;;;13.46;52.20;100125.22;5072416;28;20052;-67
2023/03/17 00:03:49;;;;;;;12.30;6.50;;;;;;;13.32;52.57;100131.13;5074508;28;20053;-66
2023/03/17 00:06:28;;;;;;;12.80;5.90;;;;;;;13.49;52.65;100127.34;5072002;28;20045;-67
2023/03/17 00:08:56;;;;;;;13.50;6.33;;;;;;;13.51;52.28;100136.88;5054448;28;20417;-66
2023/03/17 00:11:24;;;;;;;13.05;7.00;;;;;;;13.62;52.27;100130.88;5063386;28;20326;-66
2023/03/17 00:13:51;;;;;;;14.55;6.45;;;;;;;13.56;52.18;100135.84;5064383;28;20061;-66
2023/03/17 00:16:26;;;;;;;12.18;6.50;;;;;;;13.41;52.57;100137.34;5072744;28;20131;-65
2023/03/17 00:18:54;;;;;;;11.07;6.03;;;;;;;13.20;53.13;100142.19;5057657;28;20412;-67
2023/03/17 00:21:33;;;;;;;14.63;5.95;;;;;;;13.27;53.22;100142.41;5065816;28;20049;-66
2023/03/17 00:24:00;;;;;;;13.10;5.60;;;;;;;13.26;53.11;100143.59;5070869;28;20052;-65
2023/03/17 00:26:27;;;;;;;9.18;5.63;;;;;;;13.08;53.79;100142.19;5067527;28;20721;-66
2023/03/17 00:28:55;;;;;;;10.50;5.43;;;;;;;13.33;53.02;100148.53;5078138;28;20068;-66
2023/03/17 00:31:28;;;;;;;12.10;6.18;;;;;;;13.45;52.50;100141.06;5072480;28;20071;-66
2023/03/17 00:33:55;;;;;;;11.43;5.90;;;;;;;13.24;53.08;100150.59;5076847;28;20484;-65
2023/03/17 00:36:29;;;;;;;12.75;6.35;;;;;;;13.11;53.43;100152.53;5075492;28;20048;-65
2023/03/17 00:38:57;;;;;;;15.93;6.22;;;;;;;13.22;53.19;100150.94;5077684;28;20063;-66
2023/03/17 00:41:25;;;;;;;10.27;5.43;;;;;;;13.24;53.12;100139.53;5076383;28;20059;-66
2023/03/17 00:43:53;;;;;;;9.98;6.10;;;;;;;13.18;53.41;100150.00;5079089;28;20047;-66
2023/03/17 00:46:27;;;;;;;12.27;6.10;;;;;;;13.10;53.76;100156.47;5071482;28;20357;-66
2023/03/17 00:48:56;;;;;;;9.65;5.70;;;;;;;12.85;54.67;100162.28;5057060;28;20045;-65
2023/03/17 00:51:24;;;;;;;10.23;5.72;;;;;;;12.94;54.75;100147.19;5067488;28;20059;-67
2023/03/17 00:53:51;;;;;;;11.95;6.03;;;;;;;12.96;54.47;100155.97;5078919;28;20064;-66
2023/03/17 00:56:20;;;;;;;10.45;5.90;;;;;;;13.05;54.02;100145.63;5075558;28;20476;-65
2023/03/17 00:58:47;;;;;;;11.15;5.72;;;;;;;12.91;54.53;100142.34;5057008;28;20055;-65
2023/03/17 01:01:15;;;;;;;13.40;6.00;;;;;;;13.00;54.09;100137.53;5073070;28;20067;-66
2023/03/17 01:03:43;;;;;;;10.38;5.45;;;;;;;12.99;54.07;100138.66;5076489;28;20055;-66
2023/03/17 01:06:14;;;;;;;10.80;5.65;;;;;;;12.99;54.24;100143.41;5072372;28;20044;-67
2023/03/17 01:08:41;;;;;;;11.85;5.75;;;;;;;12.94;54.18;100143.63;5077351;28;20052;-66
2023/03/17 01:11:14;;;;;;;12.43;5.90;;;;;;;12.94;54.53;100144.44;5076942;28;20541;-67
2023/03/17 01:13:41;;;;;;;10.60;6.22;;;;;;;12.94;54.46;100149.97;5077248;28;20055;-67
2023/03/17 01:16:09;;;;;;;11.98;5.97;;;;;;;13.10;54.22;100155.66;5075959;28;20048;-65
2023/03/17 01:18:37;;;;;;;13.18;6.22;;;;;;;13.01;54.22;100161.25;5077968;28;20067;-65
2023/03/17 01:21:05;;;;;;;12.27;6.07;;;;;;;13.09;54.23;100160.38;5075122;28;20051;-65
2023/03/17 01:23:32;;;;;;;12.68;5.30;;;;;;;13.13;54.01;100153.00;5060241;28;20052;-65
2023/03/17 01:26:00;;;;;;;11.98;5.93;;;;;;;13.09;53.94;100157.59;5074728;28;20049;-66
2023/03/17 01:28:27;;;;;;;13.68;5.70;;;;;;;12.95;54.20;100154.34;5061509;28;20075;-66
2023/03/17 01:30:55;;;;;;;11.35;5.88;;;;;;;12.85;54.81;100148.47;5060664;28;20052;-66
2023/03/17 01:33:24;;;;;;;10.85;5.55;;;;;;;12.84;54.65;100136.59;5078151;28;20503;-66
2023/03/17 01:35:51;;;;;;;10.07;5.50;;;;;;;12.56;55.44;100143.06;5074634;28;20060;-66
2023/03/17 01:38:19;;;;;;;11.73;5.47;;;;;;;12.71;55.12;100157.03;5075973;28;20063;-66
2023/03/17 01:40:49;;;;;;;9.70;5.55;;;;;;;12.77;54.97;100152.91;5058408;28;20049;-66
2023/03/17 01:43:18;;;;;;;;;;;;;;;12.78;55.19;100146.22;5077173;28;20475;-66
2023/03/17 01:46:05;;;;;;;11.50;6.57;;;;;;;12.79;54.86;100136.81;5074771;28;19939;-65
2023/03/17 01:48:36;;;;;;;11.60;5.30;;;;;;;12.87;54.71;100132.31;5075675;28;20114;-65
2023/03/17 01:51:05;;;;;;;10.63;5.63;;;;;;;12.85;55.24;100129.88;5063552;28;20059;-66
2023/03/17 01:53:33;;;;;;;13.93;5.60;;;;;;;12.93;54.68;100131.78;5057886;28;20041;-66
2023/03/17 01:56:01;;;;;;;9.57;5.03;;;;;;;12.98;54.76;100131.53;5073809;28;20479;-65
2023/03/17 01:58:30;;;;;;;13.80;5.57;;;;;;;12.84;55.04;100125.53;5075006;28;20059;-66
2023/03/17 02:00:58;;;;;;;8.63;5.63;;;;;;;12.78;54.87;100123.34;5074244;28;20040;-65
2023/03/17 02:03:26;;;;;;;8.98;4.78;;;;;;;12.78;55.09;100123.34;5077243;28;20048;-66
2023/03/17 02:05:55;;;;;;;11.18;5.38;;;;;;;12.64;55.55;100125.59;5040940;28;20040;-65
2023/03/17 02:08:23;;;;;;;10.77;5.55;;;;;;;12.66;55.46;100128.84;5075748;28;20047;-67
2023/03/17 02:10:51;;;;;;;13.15;5.88;;;;;;;12.59;55.79;100117.53;5075729;28;20056;-66
2023/03/17 02:13:18;;;;;;;10.05;5.38;;;;;;;12.75;55.21;100130.34;5077312;28;20079;-66
2023/03/17 02:15:52;;;;;;;10.35;5.72;;;;;;;12.71;55.16;100131.38;5073297;28;20040;-66
2023/03/17 02:18:20;;;;;;;12.90;5.13;;;;;;;12.80;54.84;100130.13;5075478;28;20132;-65
2023/03/17 02:20:48;;;;;;;12.60;5.13;;;;;;;12.68;55.31;100141.16;5075014;28;20045;-65
2023/03/17 02:23:18;;;;;;;9.18;5.03;;;;;;;12.83;55.23;100134.94;5077458;28;20403;-66
2023/03/17 02:25:46;;;;;;;10.75;5.35;;;;;;;12.92;54.62;100132.13;5057270;28;20063;-66
2023/03/17 02:28:17;;;;;;;12.02;4.70;;;;;;;12.69;54.91;100134.50;5075295;28;20052;-65
2023/03/17 02:30:44;;;;;;;10.23;4.60;;;;;;;12.85;54.89;100129.09;5071029;28;20056;-64
2023/03/17 02:33:14;;;;;;;8.43;4.70;;;;;;;12.83;55.05;100123.91;5074482;28;20052;-66
2023/03/17 02:35:41;;;;;;;15.20;5.10;;;;;;;12.85;54.93;100120.81;5064984;28;20052;-65
2023/03/17 02:38:09;;;;;;;10.95;4.88;;;;;;;12.68;55.49;100132.03;5076512;28;20055;-64
2023/03/17 02:40:37;;;;;;;8.65;4.68;;;;;;;12.73;55.26;100127.09;5073672;28;20056;-65
2023/03/17 02:43:04;;;;;;;9.90;5.07;;;;;;;12.74;55.45;100120.44;5075041;28;20522;-65
2023/03/17 02:45:31;;;;;;;10.88;4.78;;;;;;;12.71;55.18;100123.09;5068685;28;20399;-65
2023/03/17 02:47:59;;;;;;;10.27;5.05;;;;;;;12.79;55.05;100117.47;5073870;28;20048;-65
2023/03/17 02:50:27;;;;;;;10.50;5.03;;;;;;;12.71;55.63;100114.78;5074466;28;20056;-65
2023/03/17 02:52:55;;;;;;;12.90;5.03;;;;;;;12.87;54.97;100110.19;5075459;28;20049;-66
2023/03/17 02:55:23;;;;;;;8.75;4.85;;;;;;;12.53;55.92;100114.16;5070278;28;20049;-66
2023/03/17 02:57:50;;;;;;;13.05;5.20;;;;;;;12.63;55.83;100102.69;5075267;28;20055;-66
2023/03/17 03:00:18;;;;;;;11.52;5.25;;;;;;;12.74;55.46;100097.53;5058652;28;20053;-66
2023/03/17 03:02:45;;;;;;;9.75;5.18;;;;;;;12.59;55.84;100082.41;5075232;28;20484;-66
2023/03/17 03:05:13;;;;;;;12.43;6.03;;;;;;;12.65;55.90;100083.81;5070843;28;20049;-66
2023/03/17 03:07:41;;;;;;;15.23;5.32;;;;;;;12.64;55.76;100081.38;5073202;28;20045;-65
2023/03/17 03:10:09;;;;;;;11.35;5.50;;;;;;;12.65;56.01;100094.03;5074612;28;20059;-66
2023/03/17 03:12:36;;;;;;;17.88;6.30;;;;;;;12.52;55.97;100079.41;5073918;28;20052;-66
2023/03/17 03:15:04;;;;;;;14.43;5.22;;;;;;;12.62;56.04;100076.22;5075000;28;20048;-65
2023/03/17 03:17:31;;;;;;;10.25;5.45;;;;;;;12.54;56.32;100071.56;5074365;28;20044;-65
2023/03/17 03:19:59;;;;;;;15.02;5.50;;;;;;;12.50;56.47;100081.69;5075968;28;20056;-66
2023/03/17 03:22:26;;;;;;;9.70;5.85;;;;;;;12.24;57.18;100081.13;5074312;28;20063;-65
2023/03/17 03:24:53;;;;;;;11.00;5.10;;;;;;;12.28;57.27;100084.84;5075973;28;20044;-65
2023/03/17 03:27:20;;;;;;;10.55;4.97;;;;;;;12.38;56.88;100085.22;5073879;28;20044;-66
2023/03/17 03:29:48;;;;;;;11.15;5.40;;;;;;;12.31;57.03;100087.75;5075802;28;20049;-65
2023/03/17 03:32:15;;;;;;;9.45;5.00;;;;;;;12.31;57.06;100079.44;5061756;28;20045;-65
2023/03/17 03:34:43;;;;;;;11.35;5.18;;;;;;;12.27;57.17;100084.03;5054252;28;20064;-65
2023/03/17 03:37:10;;;;;;;10.25;5.18;;;;;;;12.19;57.47;100082.19;5070626;28;20048;-65
2023/03/17 03:39:37;;;;;;;8.77;4.90;;;;;;;12.26;57.18;100087.13;5076056;28;20044;-65
2023/03/17 03:42:05;;;;;;;8.32;4.93;;;;;;;11.99;58.19;100093.25;5061127;28;20084;-66
2023/03/17 03:44:33;;;;;;;11.13;5.00;;;;;;;12.43;57.26;100093.28;5061446;28;20048;-66
2023/03/17 03:47:00;;;;;;;10.48;5.43;;;;;;;12.28;57.29;100093.13;5072621;28;20056;-65
2023/03/17 03:49:28;;;;;;;7.85;5.05;;;;;;;12.07;57.89;100100.63;5074563;28;20060;-64
2023/03/17 03:51:55;;;;;;;7.80;4.72;;;;;;;12.00;58.08;100092.91;5065580;28;20045;-66
2023/03/17 03:54:23;;;;;;;13.60;5.38;;;;;;;12.04;58.22;100098.56;5074792;28;20499;-67
2023/03/17 03:56:50;;;;;;;11.18;5.10;;;;;;;11.98;58.49;100102.66;5068349;28;20063;-66
2023/03/17 03:59:17;;;;;;;12.05;5.43;;;;;;;12.10;58.56;100105.50;5059768;28;20055;-65
2023/03/17 04:01:44;;;;;;;10.55;5.20;;;;;;;12.18;57.95;100107.38;5070208;28;20048;-65
2023/03/17 04:04:12;;;;;;;11.18;4.95;;;;;;;12.09;58.09;100112.97;5079396;28;20063;-65
2023/03/17 04:06:39;;;;;;;12.02;5.60;;;;;;;12.10;58.28;100111.03;5070224;28;20125;-66
2023/03/17 04:09:08;;;;;;;10.60;5.22;;;;;;;12.26;57.85;100115.56;5059281;28;20049;-66
2023/03/17 04:11:35;;;;;;;13.00;5.68;;;;;;;12.13;58.42;100113.88;5068060;28;20049;-67
2023/03/17 04:14:03;;;;;;;10.57;5.45;;;;;;;12.28;58.04;100112.47;5079331;28;20079;-65
2023/03/17 04:16:30;;;;;;;9.85;5.18;;;;;;;12.28;57.90;100123.50;5071651;28;20049;-66
2023/03/17 04:18:58;;;;;;;11.90;4.97;;;;;;;12.37;57.30;100113.19;5059021;28;20040;-65
2023/03/17 04:21:25;;;;;;;9.55;5.18;;;;;;;12.38;57.66;100115.59;5064916;28;20053;-65
2023/03/17 04:23:52;;;;;;;16.33;4.93;;;;;;;12.35;57.35;100109.97;5079041;28;20510;-65
2023/03/17 04:26:21;;;;;;;11.38;5.38;;;;;;;12.23;58.12;100107.97;5076063;28;20059;-65
2023/03/17 04:28:49;;;;;;;10.67;5.43;;;;;;;12.19;58.16;100104.25;5061179;28;20349;-65
2023/03/17 04:31:16;;;;;;;11.93;4.93;;;;;;;12.17;58.31;100117.59;5077195;28;20175;-66
2023/03/17 04:33:43;;;;;;;11.25;4.78;;;;;;;12.04;58.93;100106.84;5078545;28;20085;-66
2023/03/17 04:36:18;;;;;;;14.70;5.30;;;;;;;12.14;58.63;100098.94;5077150;28;20377;-65
2023/03/17 04:38:46;;;;;;;10.43;5.10;;;;;;;12.17;58.81;100091.94;5078063;28;20056;-65
2023/03/17 04:41:14;;;;;;;10.88;5.20;;;;;;;12.29;58.22;100097.53;5076499;28;20056;-66
2023/03/17 04:43:41;;;;;;;11.77;4.95;;;;;;;12.39;57.75;100095.16;5077723;28;20167;-66
2023/03/17 04:46:08;;;;;;;10.68;5.03;;;;;;;12.19;58.23;100095.97;5075911;28;20051;-66
2023/03/17 04:48:36;;;;;;;9.90;4.97;;;;;;;11.97;59.16;100101.88;5078112;28;20051;-65
2023/03/17 04:51:03;;;;;;;10.60;5.22;;;;;;;11.92;59.75;100102.06;5072594;28;20503;-65
2023/03/17 04:53:31;;;;;;;13.07;5.30;;;;;;;11.93;59.81;100111.97;5058644;28;20060;-66
2023/03/17 04:55:58;;;;;;;15.70;5.38;;;;;;;11.97;59.74;100107.38;5061903;28;20058;-66
2023/03/17 04:58:26;;;;;;;9.73;4.95;;;;;;;12.11;59.11;100113.44;5067472;28;20526;-65
2023/03/17 05:00:57;;;;;;;11.60;4.72;;;;;;;12.16;59.08;100106.88;5062159;28;20071;-66
2023/03/17 05:03:26;;;;;;;8.43;5.10;;;;;;;12.13;59.21;100102.84;5077873;28;20048;-66
2023/03/17 05:05:58;;;;;;;10.88;5.63;;;;;;;12.06;59.70;100104.56;5075520;28;20064;-67
2023/03/17 05:08:27;;;;;;;11.90;5.07;;;;;;;12.10;59.48;100103.53;5074823;28;20044;-67
2023/03/17 05:10:55;;;;;;;11.35;5.30;;;;;;;12.02;59.75;100106.38;5058251;28;20060;-67
2023/03/17 05:13:24;;;;;;;13.52;6.75;;;;;;;11.87;60.05;100116.06;5077019;28;20048;-67
2023/03/17 05:15:53;;;;;;;11.90;5.10;;;;;;;12.08;59.97;100118.81;5065527;28;20411;-66
2023/03/17 05:18:23;;;;;;;8.80;4.88;;;;;;;11.84;60.64;100122.25;5074552;28;20060;-67
2023/03/17 05:20:50;;;;;;;10.05;5.13;;;;;;;11.89;60.48;100122.03;5070833;28;20427;-67
2023/03/17 05:23:18;;;;;;;8.30;4.72;;;;;;;12.09;60.05;100121.25;5076146;28;20063;-68
2023/03/17 05:25:47;;;;;;;10.50;5.05;;;;;;;12.06;60.27;100115.59;5069396;28;20724;-67
2023/03/17 05:28:14;;;;;;;10.10;4.65;;;;;;;12.08;59.85;100121.59;5070159;28;20040;-67
2023/03/17 05:30:42;;;;;;;10.70;5.00;;;;;;;12.22;59.38;100119.34;5073964;28;20048;-68
2023/03/17 05:33:09;;;;;;;11.48;5.07;;;;;;;12.14;59.65;100100.91;5077834;28;20056;-66
2023/03/17 05:35:37;;;;;;;16.90;5.43;;;;;;;12.09;59.87;100106.63;5064673;28;20127;-66
2023/03/17 05:38:05;;;;;;;16.83;4.95;;;;;;;12.05;59.88;100108.44;5077413;28;20051;-67
2023/03/17 05:40:33;;;;;;;12.75;5.10;;;;;;;11.99;60.25;100110.63;5073243;28;20048;-67
2023/03/17 05:43:00;;;;;;;8.98;4.90;;;;;;;12.04;60.24;100107.66;5056345;28;20057;-69
2023/03/17 05:45:29;;;;;;;9.35;4.93;;;;;;;12.01;60.36;100100.03;5072249;28;20052;-66
2023/03/17 05:47:57;;;;;;;8.50;4.65;;;;;;;11.67;61.34;100100.31;5077313;28;20044;-67
2023/03/17 05:50:25;;;;;;;12.00;4.50;;;;;;;11.89;61.27;100102.72;5062159;28;20060;-67
2023/03/17 05:52:53;;;;;;;12.38;4.75;;;;;;;12.01;60.47;100097.25;5073751;28;20118;-67
2023/03/17 05:55:20;;;;;;;8.32;4.47;;;;;;;12.00;60.79;100108.66;5076064;28;20056;-67
2023/03/17 05:57:48;;;;;;;12.75;4.78;;;;;;;12.05;60.68;100116.72;5075626;28;20053;-67
2023/03/17 06:00:17;;;;;;;10.23;4.85;;;;;;;12.12;60.31;100115.03;5066407;28;20053;-67
2023/03/17 06:02:45;;;;;;;9.15;4.97;;;;;;;11.93;61.06;100127.69;5075359;28;20036;-67
2023/03/17 06:05:14;;;;;;;10.48;5.20;;;;;;;11.86;61.39;100119.16;5068472;28;20396;-67
2023/03/17 06:07:42;;;;;;;8.93;4.50;;;;;;;11.75;61.91;100127.00;5076155;28;20059;-69
2023/03/17 06:10:22;;;;;;;11.50;4.82;;;;;;;11.94;61.36;100118.28;5074248;28;20056;-66
2023/03/17 06:12:50;;;;;;;12.52;4.55;;;;;;;11.87;61.31;100115.25;5076306;28;20051;-67
2023/03/17 06:15:18;;;;;;;11.23;4.43;;;;;;;11.87;61.41;100107.78;5075082;28;20056;-67
2023/03/17 06:17:46;;;;;;;10.65;4.43;;;;;;;11.98;61.28;100109.00;5072700;28;20051;-67
2023/03/17 06:20:13;;;;;;;11.32;5.10;;;;;;;11.85;61.56;100118.38;5072803;28;20044;-67
2023/03/17 06:22:41;;;;;;;10.15;4.50;;;;;;;11.77;61.73;100118.44;5074285;28;20048;-66
2023/03/17 06:25:29;;;;;;;10.13;4.68;;;;;;;11.74;61.87;100124.59;5073684;28;20513;-68
2023/03/17 06:27:57;;;;;;;15.45;4.80;;;;;;;11.89;61.52;100135.06;5076686;28;20063;-68
2023/03/17 06:30:24;;;;;;;12.50;4.82;;;;;;;11.92;61.66;100124.16;5073647;28;20056;-66
2023/03/17 06:32:52;;;;;;;14.50;4.95;;;;;;;12.11;60.91;100118.97;5075510;28;20045;-67
2023/03/17 06:35:19;;;;;;;9.52;4.00;;;;;;;12.01;61.00;100118.56;5060690;28;20088;-67
2023/03/17 06:37:46;;;;;;;9.60;4.45;;;;;;;12.12;60.62;100126.09;5073981;28;20383;-67
2023/03/17 06:40:14;;;;;;;9.52;3.92;;;;;;;12.11;60.79;100113.44;5076384;28;20052;-66
2023/03/17 06:42:42;;;;;;;9.38;4.30;;;;;;;12.21;60.54;100101.16;5075828;28;20052;-66
2023/03/17 06:45:10;;;;;;;9.38;4.07;;;;;;;12.22;60.12;100100.81;5076663;28;20048;-68
2023/03/17 06:47:38;;;;;;;10.60;4.13;;;;;;;12.08;60.81;100116.84;5075353;28;20396;-67
2023/03/17 06:50:08;;;;;;;11.25;4.13;;;;;;;12.15;60.84;100119.88;5076719;28;20044;-68
2023/03/17 06:52:36;;;;;;;8.30;3.92;;;;;;;12.21;60.67;100131.53;5073429;28;20052;-68
2023/03/17 06:55:05;;;;;;;9.20;4.68;;;;;;;12.21;60.68;100143.38;5054064;28;20049;-67
2023/03/17 06:57:32;;;;;;;13.25;4.05;;;;;;;12.22;60.50;100142.22;5073768;28;20037;-67
2023/03/17 06:59:59;;;;;;;8.90;4.00;;;;;;;12.15;60.59;100136.44;5075100;28;20052;-68
2023/03/17 07:02:27;;;;;;;9.73;4.38;;;;;;;12.11;61.14;100145.75;5074168;28;20060;-67
2023/03/17 07:04:56;;;;;;;8.93;4.07;;;;;;;12.12;60.94;100137.13;5076441;28;20055;-68
2023/03/17 07:07:24;;;;;;;12.90;4.68;;;;;;;12.15;60.95;100136.44;5074375;28;20056;-67
2023/03/17 07:09:51;;;;;;;10.82;4.20;;;;;;;12.13;61.02;100130.44;5074501;28;20045;-67
2023/03/17 07:12:20;;;;;;;8.32;3.90;;;;;;;12.17;61.09;100133.34;5057082;28;20052;-68
2023/03/17 07:14:47;;;;;;;15.85;4.53;;;;;;;12.33;61.00;100131.56;5076641;28;20059;-67
2023/03/17 07:17:15;;;;;;;10.90;4.07;;;;;;;12.26;60.51;100128.56;5075280;28;20052;-67
2023/03/17 07:19:42;;;;;;;12.75;4.20;;;;;;;12.25;60.76;100126.94;5075996;28;20040;-68
2023/03/17 07:22:12;;;;;;;10.77;3.80;;;;;;;12.35;60.48;100138.38;5069471;28;20053;-69
2023/03/17 07:24:43;;;;;;;;;;;;;;;12.25;60.74;100140.75;5067523;28;20059;-69
2023/03/17 07:27:10;;;;;;;11.05;4.60;;;;;;;12.17;60.75;100156.25;5073607;28;19927;-67
2023/03/17 07:29:38;;;;;;;15.30;4.60;;;;;;;12.59;60.05;100157.00;5071256;28;20045;-67
2023/03/17 07:32:06;;;;;;;15.55;4.57;;;;;;;12.55;59.57;100166.31;5075080;28;20067;-67
2023/03/17 07:34:34;;;;;;;11.02;3.90;;;;;;;12.42;59.78;100157.16;5071222;28;20051;-67
2023/03/17 07:37:02;;;;;;;21.02;5.00;;;;;;;12.40;59.81;100154.75;5074436;28;20052;-68
2023/03/17 07:39:30;;;;;;;10.45;4.40;;;;;;;12.69;59.40;100153.00;5077510;28;20045;-69
2023/03/17 07:41:57;;;;;;;10.05;4.00;;;;;;;12.83;58.61;100146.00;5069276;28;20048;-68
2023/03/17 07:44:26;;;;;;;13.15;4.03;;;;;;;13.04;58.01;100143.22;5071515;28;20049;-69
2023/03/17 07:46:53;;;;;;;14.13;3.80;;;;;;;12.95;57.58;100153.53;5073112;28;20063;-68
2023/03/17 07:49:21;;;;;;;11.30;3.85;;;;;;;13.07;57.04;100157.16;5071839;28;20063;-69
2023/03/17 07:52:07;;;;;;;13.27;3.95;;;;;;;13.28;57.12;100152.34;5054386;28;20056;-67
2023/03/17 07:54:35;;;;;;;11.65;4.55;;;;;;;13.17;56.43;100151.19;5067054;28;20056;-66
2023/03/17 07:57:03;;;;;;;15.80;4.60;;;;;;;13.22;56.31;100162.00;5071005;28;20059;-66
2023/03/17 07:59:31;;;;;;;16.02;4.05;;;;;;;13.45;55.76;100151.31;5073046;28;20059;-67
2023/03/17 08:02:00;;;;;;;19.60;3.92;;;;;;;13.77;56.02;100161.44;5063805;28;20055;-66
2023/03/17 08:04:28;;;;;;;11.07;3.85;;;;;;;13.95;54.53;100161.97;5068554;28;20055;-65
2023/03/17 08:06:56;;;;;;;8.75;3.50;;;;;;;14.10;53.74;100175.09;5072292;28;20388;-65
2023/03/17 08:09:23;;;;;;;7.78;3.78;;;;;;;14.22;51.97;100167.56;5071397;28;20059;-64
2023/03/17 08:11:51;;;;;;;18.25;4.00;;;;;;;14.04;51.88;100168.19;5073848;28;20060;-65
2023/03/17 08:14:18;;;;;;;8.00;3.55;;;;;;;13.90;51.91;100173.28;5052779;28;20047;-65
2023/03/17 08:16:46;;;;;;;7.32;3.70;;;;;;;13.94;51.66;100165.91;5069297;28;20041;-66
2023/03/17 08:19:13;;;;;;;10.75;3.30;;;;;;;14.13;51.27;100166.09;5068905;28;20045;-66
2023/03/17 08:21:40;;;;;;;13.85;3.22;;;;;;;14.18;50.94;100165.84;5069841;28;20411;-66
2023/03/17 08:24:08;;;;;;;12.20;3.63;;;;;;;14.23;50.99;100166.41;5074749;28;20055;-64
2023/03/17 08:26:36;;;;;;;14.98;3.85;;;;;;;14.24;50.67;100158.91;5069153;28;20522;-64
2023/03/17 08:29:04;;;;;;;12.75;3.47;;;;;;;14.45;50.77;100156.78;5063867;28;20055;-66
2023/03/17 08:31:32;;;;;;;11.82;3.25;;;;;;;14.35;49.88;100160.03;5072009;28;20056;-65
2023/03/17 08:34:01;;;;;;;12.00;3.35;;;;;;;14.34;49.87;100163.97;5073066;28;20045;-65
2023/03/17 08:36:29;;;;;;;7.72;3.50;;;;;;;14.51;49.84;100158.13;5072139;28;20415;-65
2023/03/17 08:38:56;;;;;;;10.73;3.42;;;;;;;14.53;49.37;100164.94;5076445;28;20044;-66
2023/03/17 08:41:26;;;;;;;15.02;3.60;;;;;;;14.60;49.51;100151.28;5075318;28;20060;-67
2023/03/17 08:43:54;;;;;;;12.25;2.88;;;;;;;14.55;49.72;100150.72;5072498;28;20055;-68
2023/03/17 08:46:29;;;;;;;15.15;3.28;;;;;;;14.52;48.89;100140.38;5069928;28;20060;-67
2023/03/17 08:48:58;;;;;;;12.73;3.58;;;;;;;14.62;48.99;100120.44;5067960;28;20048;-66
2023/03/17 08:51:29;;;;;;;11.50;3.70;;;;;;;15.09;48.22;100118.53;5067768;28;20041;-66
2023/03/17 08:53:57;;;;;;;13.35;3.47;;;;;;;14.91;48.05;100133.88;5068632;28;20492;-66
2023/03/17 08:56:25;;;;;;;12.10;3.58;;;;;;;14.98;47.84;100136.03;5062865;28;20053;-66
2023/03/17 08:58:53;;;;;;;14.85;3.45;;;;;;;15.17;47.68;100141.69;5066588;28;20063;-67
2023/03/17 09:01:21;;;;;;;9.60;3.00;;;;;;;15.15;47.45;100146.81;5069077;28;20045;-66
2023/03/17 09:03:51;;;;;;;11.40;3.60;;;;;;;15.19;47.18;100142.94;5068956;28;20048;-67
2023/03/17 09:06:19;;;;;;;15.82;3.30;;;;;;;15.23;47.38;100138.31;5069664;28;20492;-66
2023/03/17 09:08:48;;;;;;;14.13;3.45;;;;;;;15.39;46.91;100133.56;5075530;28;20068;-66
2023/03/17 09:11:18;;;;;;;9.32;2.78;;;;;;;15.71;46.57;100140.69;5068791;28;20060;-65
2023/03/17 09:13:46;;;;;;;8.68;2.70;;;;;;;15.89;46.10;100140.28;5069902;28;20552;-65
2023/03/17 09:16:14;;;;;;;17.55;3.15;;;;;;;15.96;45.60;100132.09;5060745;28;20049;-64
2023/03/17 09:18:43;;;;;;;9.95;3.85;;;;;;;15.77;45.39;100124.56;5073209;28;20045;-65
2023/03/17 09:21:12;;;;;;;10.63;3.10;;;;;;;15.90;45.71;100120.47;5084787;28;20051;-66
2023/03/17 09:23:40;;;;;;;7.72;2.70;;;;;;;16.21;45.15;100125.13;5064337;28;20488;-66
2023/03/17 09:26:07;;;;;;;9.68;3.35;;;;;;;16.05;45.28;100116.84;5068177;28;20048;-66
2023/03/17 09:28:36;;;;;;;11.55;3.00;;;;;;;15.76;45.25;100117.38;5070044;28;20056;-65
2023/03/17 09:31:05;;;;;;;7.03;2.97;;;;;;;16.07;45.52;100116.47;5067688;28;20528;-65
2023/03/17 09:33:32;;;;;;;11.27;2.97;;;;;;;16.31;45.25;100122.56;5065682;28;20046;-64
2023/03/17 09:35:59;;;;;;;10.23;2.80;;;;;;;16.42;44.45;100117.22;5068062;28;20060;-65
2023/03/17 09:38:27;;;;;;;19.40;3.60;;;;;;;16.65;44.21;100118.09;5066601;28;20048;-65
2023/03/17 09:41:07;;;;;;;18.80;3.80;;;;;;;16.91;43.85;100111.81;5067840;28;20518;-65
2023/03/17 09:43:42;;;;;;;7.38;2.88;;;;;;;17.16;43.17;100096.34;5062892;28;20044;-63
2023/03/17 09:46:27;;;;;;;10.18;2.65;;;;;;;17.49;42.69;100091.75;5070593;28;20057;-66
2023/03/17 09:48:58;;;;;;;15.18;2.40;;;;;;;17.73;41.71;100094.09;5063839;28;20064;-65
2023/03/17 09:51:26;;;;;;;12.10;3.20;;;;;;;17.71;41.85;100092.91;5034958;28;20057;-64
2023/03/17 09:54:00;;;;;;;8.00;3.08;;;;;;;17.80;41.15;100088.63;5060834;28;20044;-64
2023/03/17 09:56:34;;;;;;;9.30;3.15;;;;;;;17.95;41.10;100086.84;5070323;28;20468;-64
2023/03/17 09:59:05;;;;;;;10.45;3.00;;;;;;;18.09;41.62;100080.66;5069307;28;20052;-65
2023/03/17 10:01:32;;;;;;;11.27;2.60;;;;;;;18.20;40.86;100078.81;5058227;28;20047;-64
2023/03/17 10:04:01;;;;;;;12.65;2.50;;;;;;;18.37;40.13;100090.19;5063885;28;20060;-64
2023/03/17 10:06:42;;;;;;;7.60;2.33;;;;;;;18.33;39.75;100091.31;5065782;28;20056;-65
2023/03/17 10:09:31;;;;;;;9.20;2.45;;;;;;;18.45;39.81;100088.28;5059186;28;20045;-65
2023/03/17 10:12:01;;;;;;;9.55;3.22;;;;;;;18.42;39.84;100103.81;5051885;28;20052;-65
2023/03/17 10:14:28;;;;;;;;;;;;;;;18.26;40.26;100105.97;5068022;28;20052;-65
2023/03/17 10:16:59;;;;;;;10.40;2.90;;;;;;;18.48;39.83;100107.84;5069830;28;19920;-65
2023/03/17 10:19:55;;;;;;;8.05;2.10;;;;;;;18.79;39.27;100110.19;5066956;28;20059;-65
2023/03/17 10:22:45;;;;;;;9.95;2.67;;;;;;;18.43;39.56;100113.00;5058424;28;20068;-64
2023/03/17 10:25:19;;;;;;;17.38;2.53;;;;;;;18.47;39.45;100120.22;5071362;28;20052;-66
2023/03/17 10:27:54;;;;;;;6.30;1.83;;;;;;;18.58;38.91;100125.91;5067996;28;20064;-65
2023/03/17 10:30:22;;;;;;;13.65;3.00;;;;;;;18.48;38.81;100126.59;5063075;28;20059;-64
2023/03/17 10:32:51;;;;;;;8.15;2.30;;;;;;;18.73;38.97;100113.72;5047948;28;20060;-65
2023/03/17 10:35:19;;;;;;;9.57;2.10;;;;;;;18.60;38.50;100120.75;5062634;28;20064;-64
2023/03/17 10:37:48;;;;;;;13.55;2.33;;;;;;;18.82;39.10;100120.59;5064584;28;20062;-66
2023/03/17 10:40:24;;;;;;;8.90;2.55;;;;;;;18.57;38.96;100121.50;5064205;28;20806;-66
2023/03/17 10:43:06;;;;;;;7.97;2.50;;;;;;;18.44;39.88;100120.97;5044516;28;20774;-65
2023/03/17 10:45:37;;;;;;;11.85;2.22;;;;;;;18.61;39.33;100105.59;5061270;28;20056;-65
2023/03/17 10:48:09;;;;;;;9.70;2.53;;;;;;;18.69;39.89;100113.66;5059228;28;20049;-65
2023/03/17 10:50:39;;;;;;;11.63;1.92;;;;;;;18.67;40.52;100116.03;5059870;28;20503;-47
2023/03/17 10:53:17;;;;;;;9.45;2.50;;;;;;;18.96;39.76;100108.78;5060829;28;20049;-49
2023/03/17 10:55:51;;;;;;;16.65;2.83;;;;;;;19.42;39.15;100106.41;5057313;28;20079;-51
2023/03/17 10:58:35;;;;;;;10.15;2.75;;;;;;;19.45;39.69;100112.03;5061701;28;20507;-50
2023/03/17 11:01:18;;;;;;;7.68;1.95;;;;;;;19.55;38.94;100119.69;5060237;28;20079;-44
2023/03/17 11:03:46;;;;;;;11.07;2.20;;;;;;;19.57;38.67;100122.09;5065884;28;20063;-46
2023/03/17 11:06:17;;;;;;;14.93;3.75;;;;;;;19.64;38.60;100117.38;5063477;28;20092;-45
2023/03/17 11:08:52;;;;;;;13.50;4.20;;;;;;;19.78;38.51;100122.22;5071250;28;20075;-47
2023/03/17 11:11:32;;;;;;;12.02;2.58;;;;;;;19.73;39.04;100117.03;5067072;28;20040;-46
2023/03/17 11:14:11;;;;;;;16.77;2.83;;;;;;;19.93;38.59;100116.34;5065045;28;20053;-46
2023/03/17 11:16:52;;;;;;;24.60;4.30;;;;;;;20.02;38.38;100110.41;5063358;28;20060;-47
2023/03/17 11:19:26;;;;;;;11.18;2.78;;;;;;;20.14;38.10;100107.25;5060618;28;20057;-48
2023/03/17 11:22:05;;;;;;;9.23;2.95;;;;;;;19.97;37.49;100111.59;5071854;28;20064;-46
2023/03/17 11:24:35;;;;;;;13.05;4.25;;;;;;;19.99;37.97;100097.22;5048993;28;20052;-45
2023/03/17 11:27:38;;;;;;;22.15;4.78;;;;;;;19.82;37.90;100112.66;5055818;28;20045;-45
2023/03/17 11:30:26;;;;;;;22.73;4.03;;;;;;;19.73;38.48;100112.25;5024040;28;20061;-45